Time;durP1;ratioP1;P1;durP2;ratioP2;P2;SDS_P1;SDS_P2;PMS_P1;PMS_P2;Temp;Humidity;BMP_temperature;BMP_pressure;BME280_temperature;BME280_humidity;BME280_pressure;Samples;Min_cycle;Max_cycle;Signal;HPM_P1;HPM_P2
2023/07/19 00:01:51;;;;;;;5.07;2.08;;;16.20;99.90;;;15.71;100.00;101515.31;3986088;29;20023;-77
2023/07/19 00:03:52;;;;;;;4.57;2.10;;;16.20;99.90;;;15.71;100.00;101510.78;3960940;30;20031;-76
2023/07/19 00:05:53;;;;;;;7.32;1.77;;;16.20;99.90;;;15.68;100.00;101510.31;3991699;29;20035;-76
2023/07/19 00:07:54;;;;;;;4.50;2.03;;;16.20;99.90;;;15.65;100.00;101508.81;3972452;29;20061;-76
2023/07/19 00:09:55;;;;;;;2.58;1.80;;;16.10;99.90;;;15.66;100.00;101515.81;3971925;29;20073;-76
2023/07/19 00:11:56;;;;;;;3.33;1.70;;;16.10;99.90;;;15.62;100.00;101511.00;3990277;29;20538;-76
2023/07/19 00:13:57;;;;;;;7.18;2.20;;;16.10;99.90;;;15.64;100.00;101514.31;3973335;29;20509;-76
2023/07/19 00:15:58;;;;;;;4.32;1.92;;;16.10;99.90;;;15.64;100.00;101525.78;3982296;29;20115;-76
2023/07/19 00:17:59;;;;;;;5.15;1.80;;;16.10;99.90;;;15.58;100.00;101513.16;3987546;29;20023;-76
2023/07/19 00:20:00;;;;;;;5.55;1.70;;;16.10;99.90;;;15.53;100.00;101520.00;3990400;29;20030;-76
2023/07/19 00:22:01;;;;;;;7.50;1.88;;;16.10;99.90;;;15.54;100.00;101518.97;3970865;29;20051;-76
2023/07/19 00:24:02;;;;;;;5.07;1.75;;;16.10;99.90;;;15.58;100.00;101530.94;3974439;29;20035;-76
2023/07/19 00:26:03;;;;;;;4.20;2.10;;;16.00;99.90;;;15.55;100.00;101523.31;3974860;29;20027;-76
2023/07/19 00:28:04;;;;;;;3.78;1.70;;;16.00;99.90;;;15.54;100.00;101534.94;3994033;29;20050;-76
2023/07/19 00:30:05;;;;;;;6.57;1.92;;;16.00;99.90;;;15.51;100.00;101522.81;3986154;29;20033;-77
2023/07/19 00:32:07;;;;;;;7.40;2.05;;;16.00;99.90;;;15.57;100.00;101521.31;3973427;29;20422;-76
2023/07/19 00:34:07;;;;;;;7.18;1.95;;;16.00;99.90;;;15.46;100.00;101517.97;3989489;29;20042;-77
2023/07/19 00:36:08;;;;;;;5.00;2.13;;;16.00;99.90;;;15.47;100.00;101519.66;3964144;30;20558;-76
2023/07/19 00:38:09;;;;;;;8.57;1.70;;;16.00;99.90;;;15.42;100.00;101516.66;3989396;29;20083;-76
2023/07/19 00:40:11;;;;;;;4.70;1.50;;;16.00;99.90;;;15.37;100.00;101516.34;3986446;29;20095;-76
2023/07/19 00:42:12;;;;;;;6.30;2.20;;;15.90;99.90;;;15.39;100.00;101524.97;3968526;29;20031;-76
2023/07/19 00:44:12;;;;;;;5.85;1.80;;;15.90;99.90;;;15.36;100.00;101519.16;3991000;29;20055;-76
2023/07/19 00:46:14;;;;;;;4.43;1.83;;;15.90;99.90;;;15.26;100.00;101508.69;3991263;29;20572;-76
2023/07/19 00:48:16;;;;;;;6.20;2.25;;;15.90;99.90;;;15.36;100.00;101527.97;3957702;30;20482;-76
2023/07/19 00:50:17;;;;;;;7.30;2.30;;;15.90;99.90;;;15.36;100.00;101527.97;3984998;29;20046;-76
2023/07/19 00:52:19;;;;;;;4.65;2.10;;;15.90;99.90;;;15.36;100.00;101517.31;3991219;29;20402;-76
2023/07/19 00:54:21;;;;;;;3.72;1.50;;;15.90;99.90;;;15.36;100.00;101516.50;3973697;29;20038;-76
2023/07/19 00:56:23;;;;;;;6.15;1.85;;;15.80;99.90;;;15.34;100.00;101515.84;3972851;29;20547;-76
2023/07/19 00:58:24;;;;;;;5.65;1.90;;;15.90;99.90;;;15.35;100.00;101515.66;3973455;29;20038;-76
2023/07/19 01:00:25;;;;;;;5.97;1.50;;;15.90;99.90;;;15.37;100.00;101513.69;3971921;29;20164;-76
2023/07/19 01:02:27;;;;;;;2.40;1.25;;;15.90;99.90;;;15.34;100.00;101513.19;3975028;29;20485;-76
2023/07/19 01:04:29;;;;;;;5.10;2.40;;;15.80;99.90;;;15.30;100.00;101514.50;3987848;29;20043;-76
2023/07/19 01:06:30;;;;;;;4.82;1.67;;;15.80;99.90;;;15.33;100.00;101517.66;3975125;29;20042;-76
2023/07/19 01:08:31;;;;;;;3.42;1.65;;;15.80;99.90;;;15.32;100.00;101523.16;3990777;29;20034;-77
2023/07/19 01:10:32;;;;;;;5.10;1.67;;;15.80;99.90;;;15.29;100.00;101516.31;3990202;29;20052;-76
2023/07/19 01:12:33;;;;;;;4.72;1.67;;;15.80;99.90;;;15.30;100.00;101517.16;3985846;29;20499;-76
2023/07/19 01:14:34;;;;;;;4.30;1.30;;;15.80;99.90;;;15.34;100.00;101507.84;3973790;29;20030;-76
2023/07/19 01:16:35;;;;;;;5.85;1.73;;;15.80;99.90;;;15.46;100.00;101517.16;3989692;29;20403;-76
2023/07/19 01:18:36;;;;;;;9.38;2.55;;;15.90;99.90;;;15.52;100.00;101511.19;3987318;29;20495;-76
2023/07/19 01:20:37;;;;;;;4.22;1.75;;;15.90;99.90;;;15.50;100.00;101508.69;3990492;29;20065;-76
2023/07/19 01:22:38;;;;;;;4.32;1.80;;;16.00;99.90;;;15.46;100.00;101499.38;3986095;29;20058;-76
2023/07/19 01:24:40;;;;;;;4.82;1.75;;;16.00;99.90;;;15.42;100.00;101500.69;3981409;29;20092;-76
2023/07/19 01:26:41;;;;;;;5.00;2.08;;;15.90;99.90;;;15.36;100.00;101498.72;3981730;29;20035;-76
2023/07/19 01:28:42;;;;;;;2.58;1.55;;;15.90;99.90;;;15.36;100.00;101497.88;3981537;29;20072;-76
2023/07/19 01:30:43;;;;;;;3.38;1.30;;;15.90;99.90;;;15.35;100.00;101502.34;3981264;29;20056;-77
2023/07/19 01:32:44;;;;;;;4.85;1.73;;;15.80;99.90;;;15.33;100.00;101501.72;3997661;29;20042;-76
2023/07/19 01:34:45;;;;;;;4.05;2.42;;;15.80;99.90;;;15.34;100.00;101505.19;3991546;29;20026;-76
2023/07/19 01:36:46;;;;;;;3.03;2.05;;;15.80;99.90;;;15.31;100.00;101502.88;3997652;29;20034;-76
2023/07/19 01:38:47;;;;;;;4.10;1.63;;;15.80;99.90;;;15.34;100.00;101500.72;3981586;29;20027;-76
2023/07/19 01:40:48;;;;;;;4.40;1.83;;;15.80;99.90;;;15.43;100.00;101501.53;3997398;29;20099;-76
2023/07/19 01:42:48;;;;;;;4.60;1.70;;;15.90;99.90;;;15.52;100.00;101505.03;3981212;29;20038;-76
2023/07/19 01:44:49;;;;;;;4.60;1.67;;;16.00;99.90;;;15.58;100.00;101507.00;3997521;29;20042;-76
2023/07/19 01:46:50;;;;;;;2.60;1.58;;;16.10;99.90;;;15.61;100.00;101509.34;3995878;29;20030;-76
2023/07/19 01:48:51;;;;;;;4.13;1.50;;;16.10;99.90;;;15.58;100.00;101499.88;3994188;29;20035;-77
2023/07/19 01:50:52;;;;;;;3.20;2.13;;;16.10;99.90;;;15.52;100.00;101483.75;3993309;29;20384;-76
2023/07/19 01:52:53;;;;;;;3.88;1.58;;;16.10;99.90;;;15.55;100.00;101500.22;3997563;29;20034;-76
2023/07/19 01:54:54;;;;;;;5.22;2.03;;;16.00;99.90;;;15.54;100.00;101489.72;3991860;29;20126;-76
2023/07/19 01:56:55;;;;;;;4.60;1.52;;;16.00;99.90;;;15.45;100.00;101479.09;3986949;29;20038;-76
2023/07/19 01:58:55;;;;;;;3.20;1.90;;;16.00;99.90;;;15.48;100.00;101488.59;3981001;29;20478;-76
2023/07/19 02:00:56;;;;;;;3.35;1.33;;;16.00;99.90;;;15.46;100.00;101485.25;3981140;29;20479;-77
2023/07/19 02:02:57;;;;;;;2.22;1.50;;;16.00;99.90;;;15.46;100.00;101494.06;3979500;29;20104;-76
2023/07/19 02:04:58;;;;;;;4.35;1.60;;;15.90;99.90;;;15.43;100.00;101497.06;3979096;29;20042;-76
2023/07/19 02:06:59;;;;;;;3.83;1.40;;;15.90;99.90;;;15.43;100.00;101496.22;3997336;29;20034;-76
2023/07/19 02:09:00;;;;;;;6.68;2.08;;;15.90;99.90;;;15.44;100.00;101504.00;3981111;29;20038;-76
2023/07/19 02:11:01;;;;;;;4.30;1.83;;;15.90;99.90;;;15.45;100.00;101502.19;3997002;29;20457;-76
2023/07/19 02:13:02;;;;;;;5.80;1.90;;;15.90;99.90;;;15.44;100.00;101484.59;3976711;29;20028;-76
2023/07/19 02:15:03;;;;;;;4.72;1.73;;;15.90;99.90;;;15.45;100.00;101495.03;3979474;29;20031;-77
2023/07/19 02:17:05;;;;;;;4.85;2.08;;;15.90;99.90;;;15.46;100.00;101496.72;3994115;29;20065;-76
2023/07/19 02:19:07;;;;;;;8.18;2.42;;;15.90;99.90;;;15.45;100.00;101492.38;3997032;29;20399;-76
2023/07/19 02:21:08;;;;;;;6.00;1.60;;;15.90;99.90;;;15.46;100.00;101490.56;3996390;29;20088;-76
2023/07/19 02:23:08;;;;;;;3.33;1.83;;;15.90;99.90;;;15.43;100.00;101491.72;3993294;29;20058;-76
2023/07/19 02:25:09;;;;;;;4.13;1.58;;;15.90;99.90;;;15.47;100.00;101495.72;3980486;29;20057;-76
2023/07/19 02:27:11;;;;;;;3.65;1.80;;;15.90;99.90;;;15.46;100.00;101498.53;3993814;29;20023;-76
2023/07/19 02:29:11;;;;;;;5.60;1.50;;;15.90;99.90;;;15.43;100.00;101497.06;3996581;29;20040;-76
2023/07/19 02:31:13;;;;;;;4.20;1.60;;;15.90;99.90;;;15.39;100.00;101495.72;3986681;29;20027;-76
2023/07/19 02:33:15;;;;;;;3.55;1.60;;;15.90;99.90;;;15.40;100.00;101497.38;3980658;29;20389;-76
2023/07/19 02:35:16;;;;;;;3.17;1.90;;;15.90;99.90;;;15.39;100.00;101501.03;3980668;29;20027;-76
2023/07/19 02:37:16;;;;;;;3.72;1.70;;;15.90;99.90;;;15.36;100.00;101496.06;3996875;29;20384;-77
2023/07/19 02:39:19;;;;;;;4.90;1.85;;;15.80;99.90;;;15.33;100.00;101495.56;3996911;29;20042;-76
2023/07/19 02:41:20;;;;;;;4.90;1.67;;;15.80;99.90;;;15.31;100.00;101487.75;3980860;29;20039;-76
2023/07/19 02:43:21;;;;;;;2.15;1.40;;;15.80;99.90;;;15.28;100.00;101482.78;3996445;29;20053;-76
2023/07/19 02:45:24;;;;;;;2.78;1.63;;;15.80;99.90;;;15.29;100.00;101483.63;3980639;29;20035;-76
2023/07/19 02:47:25;;;;;;;4.50;1.77;;;15.70;99.90;;;15.26;100.00;101483.97;3992674;29;20562;-76
2023/07/19 02:49:25;;;;;;;4.97;2.83;;;15.70;99.90;;;15.25;100.00;101488.44;3996724;29;20034;-76
2023/07/19 02:51:26;;;;;;;5.03;1.70;;;15.70;99.90;;;15.26;100.00;101483.97;3980362;29;20057;-76
2023/07/19 02:53:27;;;;;;;5.30;1.90;;;15.70;99.90;;;15.27;100.00;101494.41;3965266;30;20039;-76
2023/07/19 02:55:28;;;;;;;3.60;1.63;;;15.70;99.90;;;15.28;100.00;101488.09;3994530;29;20495;-77
2023/07/19 02:57:29;;;;;;;3.40;1.58;;;15.70;99.90;;;15.26;100.00;101484.75;3980311;29;20031;-76
2023/07/19 02:59:30;;;;;;;4.13;1.65;;;15.70;99.90;;;15.24;100.00;101484.09;3980207;29;20518;-76
2023/07/19 03:01:31;;;;;;;3.95;2.28;;;15.70;99.90;;;15.27;100.00;101481.13;3993729;29;20547;-77
2023/07/19 03:03:32;;;;;;;3.28;1.65;;;15.70;99.90;;;15.26;100.00;101484.75;3996586;29;20035;-76
2023/07/19 03:05:42;;;;;;;4.47;1.95;;;15.70;99.90;;;15.21;100.00;101484.44;3996435;29;20049;-76
2023/07/19 03:07:43;;;;;;;3.83;2.00;;;15.70;99.90;;;15.27;100.00;101485.59;3981289;29;20444;-76
2023/07/19 03:09:44;;;;;;;4.07;1.60;;;15.70;99.90;;;15.25;100.00;101492.91;3995374;29;20034;-76
2023/07/19 03:11:45;;;;;;;4.00;2.08;;;15.70;99.90;;;15.24;100.00;101492.09;3996234;29;20452;-76
2023/07/19 03:13:45;;;;;;;4.13;1.65;;;15.70;99.90;;;15.19;100.00;101486.44;3996205;29;20055;-76
2023/07/19 03:15:47;;;;;;;2.60;1.85;;;15.70;99.90;;;15.22;100.00;101483.47;3986452;29;20023;-76
2023/07/19 03:17:48;;;;;;;3.20;1.60;;;15.70;99.90;;;15.20;100.00;101484.63;3976228;29;20055;-76
2023/07/19 03:19:49;;;;;;;4.95;1.45;;;15.70;99.90;;;15.18;100.00;101484.78;3985300;29;20038;-76
2023/07/19 03:21:50;;;;;;;6.00;2.00;;;15.70;99.90;;;15.21;100.00;101489.75;3979817;29;20039;-76
2023/07/19 03:23:51;;;;;;;4.85;1.83;;;15.70;99.90;;;15.17;100.00;101484.97;3996316;29;20046;-76
2023/07/19 03:25:51;;;;;;;4.88;1.92;;;15.70;99.90;;;15.21;100.00;101492.41;3979988;29;20030;-76
2023/07/19 03:27:53;;;;;;;4.00;1.85;;;15.70;99.90;;;15.21;100.00;101492.41;3996007;29;20037;-76
2023/07/19 03:29:53;;;;;;;4.90;1.65;;;15.70;99.90;;;15.22;100.00;101499.41;3979811;29;20031;-76
2023/07/19 03:31:54;;;;;;;7.95;2.40;;;15.70;99.90;;;15.19;100.00;101490.94;3996207;29;20033;-76
2023/07/19 03:33:55;;;;;;;4.47;1.95;;;15.70;99.90;;;15.19;100.00;101499.75;3996103;29;20041;-76
2023/07/19 03:35:56;;;;;;;6.40;2.03;;;15.70;99.90;;;15.15;100.00;101487.78;3963446;29;20035;-76
2023/07/19 03:37:57;;;;;;;5.38;2.25;;;15.60;99.90;;;15.16;100.00;101500.06;3984204;29;20026;-76
2023/07/19 03:39:57;;;;;;;6.25;2.30;;;15.60;99.90;;;15.14;100.00;101498.59;3982928;29;20530;-76
2023/07/19 03:41:58;;;;;;;4.43;1.98;;;15.60;99.90;;;15.11;100.00;101485.63;3977518;29;20043;-76
2023/07/19 03:43:59;;;;;;;5.93;1.80;;;15.60;99.90;;;15.13;100.00;101494.25;3989107;29;20118;-76
2023/07/19 03:46:00;;;;;;;2.33;1.77;;;15.60;99.90;;;15.07;100.00;101487.78;3989934;29;20034;-76
2023/07/19 03:48:01;;;;;;;5.22;2.70;;;15.60;99.90;;;15.10;100.00;101495.41;3975578;29;20035;-76
2023/07/19 03:50:03;;;;;;;5.00;2.00;;;15.60;99.90;;;15.07;100.00;101493.09;3995885;29;20039;-76
2023/07/19 03:52:04;;;;;;;5.07;1.95;;;15.60;99.90;;;15.09;100.00;101492.91;3964611;29;20478;-76
2023/07/19 03:54:05;;;;;;;8.30;2.65;;;15.50;99.90;;;15.05;100.00;101487.13;3984327;29;20509;-76
2023/07/19 03:56:06;;;;;;;5.05;2.15;;;15.50;99.90;;;15.01;100.00;101490.28;3990024;29;20068;-76
2023/07/19 03:58:07;;;;;;;5.85;1.98;;;15.50;99.90;;;15.01;100.00;101491.09;3995617;29;20030;-76
2023/07/19 04:00:09;;;;;;;6.30;2.28;;;15.50;99.90;;;15.02;100.00;101500.75;3979508;29;20092;-76
2023/07/19 04:02:09;;;;;;;5.35;2.63;;;15.50;99.90;;;15.00;100.00;101499.22;3995716;29;20499;-76
2023/07/19 04:04:10;;;;;;;7.00;2.25;;;15.50;99.90;;;14.99;100.00;101494.94;3976636;29;20039;-76
2023/07/19 04:06:11;;;;;;;5.20;2.05;;;15.50;99.90;;;14.93;100.00;101488.47;3992106;29;20509;-76
2023/07/19 04:08:14;;;;;;;4.15;1.98;;;15.40;99.90;;;14.92;100.00;101495.59;3988891;29;20034;-76
2023/07/19 04:10:15;;;;;;;5.10;2.50;;;15.40;99.90;;;14.92;100.00;101502.72;3994369;29;20106;-76
2023/07/19 04:12:16;;;;;;;5.35;2.15;;;15.40;99.90;;;14.92;100.00;101498.25;3988067;29;20045;-76
2023/07/19 04:14:17;;;;;;;8.75;2.65;;;15.40;99.90;;;14.96;100.00;101501.41;3971814;29;20142;-76
2023/07/19 04:16:18;;;;;;;8.50;3.03;;;15.40;99.90;;;14.93;100.00;101497.22;3987357;29;20035;-76
2023/07/19 04:18:19;;;;;;;4.45;2.13;;;15.40;99.90;;;14.92;100.00;101502.72;3995762;29;20498;-76
2023/07/19 04:20:19;;;;;;;7.65;2.50;;;15.40;99.90;;;14.92;100.00;101500.91;3979300;29;20039;-76
2023/07/19 04:22:20;;;;;;;3.45;2.17;;;15.40;99.90;;;14.92;100.00;101508.03;3985757;29;20085;-76
2023/07/19 04:24:21;;;;;;;6.13;2.30;;;15.40;99.90;;;14.93;100.00;101509.72;3994747;29;20043;-76
2023/07/19 04:26:22;;;;;;;7.25;2.38;;;15.40;99.90;;;14.89;100.00;101509.22;3990754;29;20061;-77
2023/07/19 04:28:23;;;;;;;5.25;2.60;;;15.40;99.90;;;14.90;100.00;101510.03;3990388;29;20559;-76
2023/07/19 04:30:24;;;;;;;6.88;2.60;;;15.40;99.90;;;14.89;100.00;101509.22;3995339;29;20030;-76
2023/07/19 04:32:26;;;;;;;3.80;1.98;;;15.40;99.90;;;14.90;100.00;101507.38;3979248;29;20038;-77
2023/07/19 04:34:27;;;;;;;8.95;2.75;;;15.40;99.90;;;14.90;100.00;101507.38;3979122;29;20038;-76
2023/07/19 04:36:28;;;;;;;8.52;3.15;;;15.40;99.90;;;14.92;100.00;101503.56;3995387;29;20487;-76
2023/07/19 04:38:29;;;;;;;5.50;2.67;;;15.40;99.90;;;14.90;100.00;101508.19;3995392;29;20030;-76
2023/07/19 04:40:31;;;;;;;5.60;2.70;;;15.40;99.90;;;14.85;100.00;101497.25;3995320;29;20117;-76
2023/07/19 04:42:32;;;;;;;6.85;2.55;;;15.40;99.90;;;14.91;100.00;101512.53;3993094;29;20059;-76
2023/07/19 04:44:33;;;;;;;5.55;2.63;;;15.40;99.90;;;14.93;100.00;101512.38;3989232;29;20046;-76
2023/07/19 04:46:35;;;;;;;5.50;2.88;;;15.40;99.90;;;14.95;100.00;101511.22;3979241;29;20048;-76
2023/07/19 04:48:36;;;;;;;5.57;2.25;;;15.40;99.90;;;15.01;100.00;101527.47;3992112;29;20038;-76
2023/07/19 04:50:37;;;;;;;7.25;2.50;;;15.40;99.90;;;15.01;100.00;101512.38;3996492;29;20518;-76
2023/07/19 04:52:38;;;;;;;7.55;2.50;;;15.50;99.90;;;15.04;100.00;101516.50;3982242;29;20035;-76
2023/07/19 04:54:39;;;;;;;7.35;2.65;;;15.50;99.90;;;15.08;100.00;101515.19;3998163;29;20022;-76
2023/07/19 04:56:40;;;;;;;6.95;3.58;;;15.50;99.90;;;15.10;100.00;101515.84;3998309;29;20030;-76
2023/07/19 04:58:40;;;;;;;4.47;2.60;;;15.60;99.90;;;15.14;100.00;101519.84;3981809;29;20027;-76
2023/07/19 05:00:41;;;;;;;6.38;2.40;;;15.60;99.90;;;15.17;100.00;101516.84;3997215;29;20042;-76
2023/07/19 05:02:42;;;;;;;5.30;2.47;;;15.70;99.90;;;15.25;100.00;101519.50;3988758;29;20031;-76
2023/07/19 05:04:43;;;;;;;6.22;3.83;;;15.70;99.90;;;15.26;100.00;101521.16;3998042;29;20038;-76
2023/07/19 05:06:44;;;;;;;5.95;2.92;;;15.70;99.90;;;15.30;100.00;101522.47;3981973;29;20080;-76
2023/07/19 05:08:45;;;;;;;7.45;3.97;;;15.70;99.90;;;15.39;100.00;101524.97;3995164;29;20068;-76
2023/07/19 05:10:46;;;;;;;6.90;2.88;;;15.80;99.90;;;15.52;100.00;101528.97;3996933;29;20031;-76
2023/07/19 05:12:47;;;;;;;5.13;3.15;;;15.90;99.90;;;15.58;100.00;101526.47;3996491;29;20533;-76
2023/07/19 05:14:48;;;;;;;8.20;2.60;;;16.00;99.90;;;15.65;100.00;101524.78;3995360;29;20037;-76
2023/07/19 05:16:50;;;;;;;8.45;3.20;;;16.10;99.90;;;15.74;100.00;101520.28;3981544;29;20531;-76
2023/07/19 05:18:51;;;;;;;4.28;3.03;;;16.20;99.90;;;15.82;100.00;101529.06;3998055;29;20022;-76
2023/07/19 05:20:52;;;;;;;6.60;3.20;;;16.20;99.90;;;15.85;100.00;101523.41;3997696;29;20049;-76
2023/07/19 05:22:53;;;;;;;4.60;2.83;;;16.30;99.90;;;15.95;100.00;101532.00;3991586;29;20051;-76
2023/07/19 05:24:53;;;;;;;7.32;2.70;;;16.40;99.90;;;16.02;100.00;101527.66;3995559;29;20030;-76
2023/07/19 05:26:55;;;;;;;9.20;3.10;;;16.50;99.90;;;16.04;100.00;101532.78;3997912;29;20027;-76
2023/07/19 05:28:56;;;;;;;8.65;3.30;;;16.50;99.90;;;16.03;100.00;101532.00;3978428;29;20038;-76
2023/07/19 05:31:05;;;;;;;5.80;2.78;;;16.60;99.90;;;16.03;100.00;101533.81;3991323;29;20479;-77
2023/07/19 05:33:05;;;;;;;8.10;2.70;;;16.50;99.90;;;16.08;100.00;101528.81;3992138;29;20087;-76
2023/07/19 05:35:06;;;;;;;8.00;3.75;;;16.60;99.90;;;16.17;100.00;101538.41;3981454;29;20022;-76
2023/07/19 05:37:07;;;;;;;5.88;3.38;;;16.60;99.90;;;16.27;100.00;101543.53;3995096;29;20034;-76
2023/07/19 05:39:09;;;;;;;4.03;1.92;;;16.70;99.90;;;16.35;100.00;101547.00;3991199;29;20088;-76
2023/07/19 05:41:10;;;;;;;6.68;2.50;;;16.80;99.90;;;16.45;100.00;101538.78;3997598;29;20030;-76
2023/07/19 05:43:11;;;;;;;3.83;2.28;;;16.90;99.90;;;16.55;100.00;101544.75;3993506;29;20038;-76
2023/07/19 05:45:11;;;;;;;4.93;2.70;;;16.90;99.90;;;16.59;100.00;101525.59;3983467;29;20064;-76
2023/07/19 05:47:12;;;;;;;5.82;2.20;;;17.00;99.90;;;16.80;100.00;101540.09;3997218;29;20498;-77
2023/07/19 05:49:13;;;;;;;4.13;1.85;;;17.10;99.90;;;16.91;100.00;101537.84;3997565;29;20041;-76
2023/07/19 05:51:14;;;;;;;6.15;2.22;;;17.20;99.90;;;17.03;100.00;101536.41;3997392;29;20035;-76
2023/07/19 05:53:15;;;;;;;3.22;1.52;;;17.40;99.90;;;17.08;100.00;101539.38;3981133;29;20026;-76
2023/07/19 05:55:16;;;;;;;5.22;2.30;;;17.50;99.90;;;17.22;100.00;101544.94;3981189;29;20023;-76
2023/07/19 05:57:17;;;;;;;4.50;2.05;;;17.60;99.90;;;17.32;100.00;101548.19;3997520;29;20034;-76
2023/07/19 05:59:18;;;;;;;3.92;1.60;;;17.70;99.90;;;17.37;100.00;101543.97;3996632;29;20029;-76
2023/07/19 06:01:19;;;;;;;5.97;2.08;;;17.70;99.90;;;17.45;100.00;101554.56;3981296;29;20030;-76
2023/07/19 06:03:20;;;;;;;5.47;1.95;;;17.80;99.90;;;17.52;100.00;101547.50;3981182;29;20123;-76
2023/07/19 06:05:25;;;;;;;3.97;1.65;;;17.90;99.90;;;17.51;100.00;101547.66;3981023;29;20072;-76
2023/07/19 06:07:26;;;;;;;4.18;1.50;;;17.90;99.90;;;17.65;100.00;101553.06;3976634;29;20087;-76
2023/07/19 06:09:27;;;;;;;3.40;1.60;;;18.00;99.90;;;17.69;100.00;101543.69;3991165;29;20388;-76
2023/07/19 06:11:28;;;;;;;5.97;1.70;;;18.10;99.90;;;17.68;100.00;101562.56;3977895;29;20487;-76
2023/07/19 06:13:29;;;;;;;3.83;1.65;;;18.20;99.90;;;17.69;100.00;101532.19;3996910;29;20030;-76
2023/07/19 06:15:32;;;;;;;2.83;1.48;;;18.20;99.90;;;18.04;100.00;101552.00;3979731;29;20042;-76
2023/07/19 06:17:33;;;;;;;3.23;1.60;;;18.30;99.90;;;18.19;100.00;101558.97;3986100;29;20061;-76
2023/07/19 06:19:33;;;;;;;4.68;1.67;;;18.50;99.90;;;18.30;100.00;101555.00;3994622;29;20453;-76
2023/07/19 06:21:34;;;;;;;4.50;1.70;;;18.60;99.90;;;18.44;100.00;101553.31;3980723;29;20023;-76
2023/07/19 06:23:35;;;;;;;3.42;1.48;;;18.70;99.90;;;18.56;100.00;101557.19;3992961;29;20068;-76
2023/07/19 06:25:36;;;;;;;4.50;1.75;;;18.80;99.90;;;18.67;100.00;101560.19;3980679;29;20027;-76
2023/07/19 06:27:37;;;;;;;4.38;1.75;;;18.90;99.90;;;18.59;100.00;101562.97;3992677;29;20031;-76
2023/07/19 06:29:38;;;;;;;6.57;1.60;;;19.00;99.90;;;18.56;100.00;101563.34;3996740;29;20514;-76
2023/07/19 06:31:39;;;;;;;4.57;1.30;;;19.00;99.90;;;18.59;100.00;101562.16;3996726;29;20030;-76
2023/07/19 06:33:40;;;;;;;3.80;1.55;;;19.00;99.90;;;18.68;100.00;101566.34;3992477;29;20026;-76
2023/07/19 06:35:40;;;;;;;3.13;1.67;;;19.10;99.90;;;18.73;100.00;101561.28;3992202;29;20023;-76
2023/07/19 06:37:43;;;;;;;5.40;2.08;;;19.20;99.90;;;18.77;100.00;101559.88;3990681;29;20046;-76
2023/07/19 06:39:46;;;;;;;4.53;1.55;;;19.20;99.90;;;18.74;100.00;101544.22;3991564;29;20026;-76
2023/07/19 06:41:47;;;;;;;3.42;1.90;;;19.30;99.90;;;18.95;100.00;101562.94;3990870;29;20037;-77
2023/07/19 06:43:47;;;;;;;4.95;1.90;;;19.40;99.90;;;18.78;100.00;101554.38;3973660;29;20411;-77
2023/07/19 06:45:49;;;;;;;4.00;1.58;;;19.30;99.90;;;18.96;100.00;101553.09;3977650;29;20038;-76
2023/07/19 06:47:49;;;;;;;4.43;1.55;;;19.40;99.90;;;19.10;100.00;101549.50;3986807;29;20034;-77
2023/07/19 06:49:50;;;;;;;5.38;1.83;;;19.40;99.90;;;19.27;100.00;101546.38;3988650;29;20035;-77
2023/07/19 06:51:51;;;;;;;4.22;1.75;;;19.50;99.90;;;19.22;100.00;101551.47;3972962;29;20496;-77
2023/07/19 06:53:52;;;;;;;6.75;1.58;;;19.50;99.90;;;19.07;100.00;101547.22;3990978;29;20380;-77
2023/07/19 06:55:58;;;;;;;5.22;1.75;;;19.40;99.90;;;19.00;100.00;101551.66;3992462;29;20022;-77
2023/07/19 06:57:59;;;;;;;3.35;1.58;;;19.40;99.90;;;19.09;100.00;101548.69;3973087;29;20031;-77
2023/07/19 07:00:02;;;;;;;5.70;1.83;;;19.40;99.90;;;19.25;100.00;101548.44;3991751;29;20521;-77
2023/07/19 07:02:03;;;;;;;3.00;1.40;;;19.50;99.90;;;19.58;100.00;101553.22;3975683;29;20423;-77
2023/07/19 07:04:08;;;;;;;3.35;1.13;;;19.80;99.90;;;19.72;100.00;101549.63;3987741;29;20314;-77
2023/07/19 07:06:09;;;;;;;4.65;1.58;;;20.00;99.90;;;19.59;94.09;101542.31;3990892;29;20485;-76
2023/07/19 07:08:10;;;;;;;6.07;1.42;;;20.00;99.90;;;19.87;93.04;101545.81;3989398;29;20042;-76
2023/07/19 07:10:12;;;;;;;3.63;1.50;;;20.10;99.90;;;20.13;91.56;101555.81;3994698;29;20058;-76
2023/07/19 07:12:13;;;;;;;4.45;1.73;;;20.30;99.90;;;20.24;90.93;101559.81;3988095;29;20031;-76
2023/07/19 07:14:14;;;;;;;7.05;1.60;;;20.40;99.90;;;20.37;92.56;101557.19;3970136;29;20030;-76
2023/07/19 07:16:15;;;;;;;5.88;2.05;;;20.50;99.90;;;20.31;92.15;101555.31;3988693;29;20463;-76
2023/07/19 07:18:16;;;;;;;3.35;1.45;;;20.60;99.90;;;20.34;93.02;101554.91;3992217;29;20411;-76
2023/07/19 07:20:18;;;;;;;4.97;1.63;;;20.60;99.90;;;20.36;94.49;101558.25;3992282;29;20023;-76
2023/07/19 07:22:19;;;;;;;4.75;1.90;;;20.70;99.90;;;20.33;95.38;101558.66;3972739;29;20065;-76
2023/07/19 07:24:20;;;;;;;4.90;1.80;;;20.70;99.90;;;20.42;95.66;101562.81;3972754;29;20027;-76
2023/07/19 07:26:21;;;;;;;10.23;3.33;;;20.80;99.90;;;20.42;95.70;101566.31;3971588;29;20039;-76
2023/07/19 07:28:22;;;;;;;5.60;1.90;;;20.80;99.90;;;20.55;96.04;101570.06;3990496;29;20039;-76
2023/07/19 07:30:23;;;;;;;9.05;2.97;;;20.90;99.90;;;20.60;94.65;101568.44;3990534;29;20064;-77
2023/07/19 07:32:24;;;;;;;4.50;1.63;;;20.90;99.90;;;20.48;93.46;101555.81;3989789;29;20514;-76
2023/07/19 07:34:25;;;;;;;5.72;1.95;;;20.90;99.90;;;20.49;93.61;101563.63;3988844;29;20027;-76
2023/07/19 07:36:25;;;;;;;3.20;1.55;;;20.90;99.90;;;20.50;91.85;101559.94;3985940;29;20033;-77
2023/07/19 07:38:27;;;;;;;3.60;1.60;;;20.90;99.90;;;20.62;91.10;101568.22;3988373;29;20022;-76
2023/07/19 07:40:28;;;;;;;6.10;1.60;;;21.00;99.90;;;20.67;89.86;101563.91;3988862;29;20059;-76
2023/07/19 07:42:28;;;;;;;6.10;1.73;;;21.00;99.90;;;20.69;88.70;101572.59;3974840;29;20056;-76
2023/07/19 07:44:29;;;;;;;4.38;1.65;;;21.10;99.90;;;20.59;89.55;101566.78;3988341;29;20038;-76
2023/07/19 07:46:30;;;;;;;4.78;1.50;;;21.10;99.90;;;20.73;90.43;101568.47;3987977;29;20495;-76
2023/07/19 07:48:32;;;;;;;6.43;1.88;;;21.10;99.90;;;20.80;90.49;101565.81;3971030;29;20067;-76
2023/07/19 07:50:33;;;;;;;4.00;1.50;;;21.20;99.90;;;20.60;89.70;101567.59;3986074;29;20088;-76
2023/07/19 07:52:35;;;;;;;3.42;1.10;;;21.20;99.90;;;20.60;90.42;101563.06;3991835;29;20030;-76
2023/07/19 07:54:36;;;;;;;3.92;1.75;;;21.20;99.90;;;20.55;89.87;101562.84;3973340;29;20023;-76
2023/07/19 07:56:37;;;;;;;6.13;1.65;;;21.10;99.90;;;20.94;87.78;101562.09;3990307;29;20030;-76
2023/07/19 07:58:38;;;;;;;4.95;1.55;;;21.20;99.90;;;20.79;88.43;101564.13;3987678;29;20265;-76
2023/07/19 08:00:39;;;;;;;2.92;1.23;;;21.30;99.90;;;20.94;88.77;101556.75;3985625;29;20064;-77
2023/07/19 08:02:40;;;;;;;3.15;1.65;;;21.40;99.90;;;20.65;87.03;101557.09;3987980;29;20031;-77
2023/07/19 08:04:40;;;;;;;4.45;1.60;;;21.30;99.90;;;20.78;85.99;101567.88;3975421;29;20034;-76
2023/07/19 08:06:41;;;;;;;6.60;1.55;;;21.20;99.90;;;20.46;87.28;101558.69;3990248;29;20041;-76
2023/07/19 08:08:42;;;;;;;3.95;1.70;;;21.00;99.90;;;20.37;87.87;101562.56;3974084;29;20035;-77
2023/07/19 08:10:43;;;;;;;2.90;1.40;;;20.90;99.90;;;20.15;88.34;101561.00;3994303;29;20026;-77
2023/07/19 08:12:44;;;;;;;7.05;1.45;;;20.80;99.90;;;20.43;89.13;101567.94;3973103;29;20027;-76
2023/07/19 08:14:45;;;;;;;3.28;1.25;;;20.80;99.90;;;20.97;86.96;101564.38;3972241;29;20031;-77
2023/07/19 08:16:53;;;;;;;5.55;1.83;;;21.10;99.90;;;21.43;82.73;101567.97;3976258;29;20023;-77
2023/07/19 08:18:53;;;;;;;3.30;1.40;;;21.50;99.90;;;21.35;82.18;101568.19;3975447;29;20018;-77
2023/07/19 08:20:54;;;;;;;4.53;1.70;;;21.70;99.90;;;21.12;82.36;101564.22;3988150;29;20031;-77